createdAt,value
2022-08-07T00:00:27.723Z,101488.17
2022-08-07T00:02:50.961Z,101485.47
2022-08-07T00:05:06.949Z,101487.15
2022-08-07T00:07:20.154Z,101485.73
2022-08-07T00:09:35.831Z,101484.11
2022-08-07T00:11:55.494Z,101484.83
2022-08-07T00:14:11.991Z,101485.27
2022-08-07T00:16:28.157Z,101484.66
2022-08-07T00:18:41.457Z,101486.09
2022-08-07T00:20:56.851Z,101488.44
2022-08-07T00:23:11.367Z,101489.43
2022-08-07T00:25:26.159Z,101484.42
2022-08-07T00:27:52.913Z,101483.36
2022-08-07T00:30:07.304Z,101477.64
2022-08-07T00:32:39.891Z,101469.06
2022-08-07T00:34:52.923Z,101472.05
2022-08-07T00:37:06.344Z,101473.65
2022-08-07T00:39:21.565Z,101473.35
2022-08-07T00:41:45.345Z,101464.66
2022-08-07T00:44:07.162Z,101465.31
2022-08-07T00:46:21.196Z,101461.12
2022-08-07T00:48:35.703Z,101456.67
2022-08-07T00:50:55.429Z,101458.72
2022-08-07T00:53:09.276Z,101453.17
2022-08-07T00:55:25.475Z,101454.20
2022-08-07T00:57:57.890Z,101455.48
2022-08-07T01:00:12.785Z,101455.47
2022-08-07T01:02:28.584Z,101450.48
2022-08-07T01:04:43.933Z,101450.59
2022-08-07T01:06:57.819Z,101451.52
2022-08-07T01:09:11.216Z,101448.56
2022-08-07T01:12:09.225Z,101449.02
2022-08-07T01:14:17.512Z,101442.46
2022-08-07T01:16:34.793Z,101438.95
2022-08-07T01:18:49.351Z,101437.70
2022-08-07T01:21:24.392Z,101436.64
2022-08-07T01:23:46.453Z,101434.08
2022-08-07T01:26:00.905Z,101429.17
2022-08-07T01:28:14.542Z,101425.78
2022-08-07T01:30:30.376Z,101421.70
2022-08-07T01:32:43.639Z,101418.80
2022-08-07T01:34:57.362Z,101420.42
2022-08-07T01:37:12.516Z,101420.88
2022-08-07T01:39:41.061Z,101419.30
2022-08-07T01:42:38.231Z,101417.79
2022-08-07T01:44:40.897Z,101414.82
2022-08-07T01:46:55.733Z,101408.70
2022-08-07T01:49:11.283Z,101413.89
2022-08-07T01:52:02.206Z,101412.62
2022-08-07T01:54:19.218Z,101417.60
2022-08-07T01:56:51.913Z,101412.63
2022-08-07T01:59:15.692Z,101415.52
2022-08-07T02:02:02.135Z,101413.80
2022-08-07T02:04:15.064Z,101411.02
2022-08-07T02:06:36.022Z,101408.58
2022-08-07T02:08:54.196Z,101407.36
2022-08-07T02:11:57.638Z,101407.86
2022-08-07T02:13:58.117Z,101410.35
2022-08-07T02:16:15.220Z,101408.45
2022-08-07T02:18:30.676Z,101408.92
2022-08-07T02:20:48.723Z,101404.76
2022-08-07T02:23:11.611Z,101408.03
2022-08-07T02:26:10.589Z,101412.77
2022-08-07T02:28:02.356Z,101413.45
2022-08-07T02:30:21.201Z,101415.33
2022-08-07T02:32:39.365Z,101418.70
2022-08-07T02:34:55.655Z,101416.23
2022-08-07T02:37:13.428Z,101418.59
2022-08-07T02:39:43.720Z,101416.35
2022-08-07T02:42:10.117Z,101412.03
2022-08-07T02:44:34.624Z,101416.44
2022-08-07T02:46:53.912Z,101409.10
2022-08-07T02:49:08.000Z,101417.28
2022-08-07T02:51:42.144Z,101411.80
2022-08-07T02:53:59.543Z,101417.77
2022-08-07T02:56:20.944Z,101419.59
2022-08-07T02:58:35.540Z,101423.89
2022-08-07T03:00:52.844Z,101423.15
2022-08-07T03:03:08.669Z,101423.30
2022-08-07T03:05:35.985Z,101426.22
2022-08-07T03:08:05.422Z,101424.46
2022-08-07T03:10:23.459Z,101424.47
2022-08-07T03:12:38.816Z,101424.64
2022-08-07T03:14:57.474Z,101420.97
2022-08-07T03:17:16.249Z,101423.38
2022-08-07T03:19:36.887Z,101427.38
2022-08-07T03:21:53.911Z,101425.36
2022-08-07T03:24:20.820Z,101426.98
2022-08-07T03:26:50.894Z,101427.40
2022-08-07T03:29:14.715Z,101426.73
2022-08-07T03:31:43.288Z,101423.37
2022-08-07T03:34:04.629Z,101422.42
2022-08-07T03:36:21.628Z,101426.37
2022-08-07T03:38:41.153Z,101425.20
2022-08-07T03:40:57.250Z,101421.06
2022-08-07T03:43:14.453Z,101427.10
2022-08-07T03:45:39.753Z,101428.44
2022-08-07T03:47:59.816Z,101432.33
2022-08-07T03:50:13.581Z,101432.11
2022-08-07T03:52:29.007Z,101433.25
2022-08-07T03:54:54.915Z,101436.33
2022-08-07T03:57:11.459Z,101438.05
2022-08-07T03:59:46.618Z,101438.79
2022-08-07T04:02:17.051Z,101441.17
2022-08-07T04:04:32.850Z,101442.80
2022-08-07T04:06:50.918Z,101439.77
2022-08-07T04:09:08.418Z,101446.38
2022-08-07T04:12:26.885Z,101443.38
2022-08-07T04:14:33.269Z,101446.45
2022-08-07T04:16:37.750Z,101447.80
2022-08-07T04:19:01.290Z,101444.45
2022-08-07T04:21:17.751Z,101445.69
2022-08-07T04:23:43.947Z,101446.01
2022-08-07T04:26:04.613Z,101445.89
2022-08-07T04:28:18.468Z,101444.86
2022-08-07T04:30:43.492Z,101449.92
2022-08-07T04:33:15.640Z,101448.42
2022-08-07T04:35:35.339Z,101446.55
2022-08-07T04:38:06.891Z,101448.52
2022-08-07T04:40:21.435Z,101449.04
2022-08-07T04:42:43.662Z,101448.11
2022-08-07T04:45:07.813Z,101448.73
2022-08-07T04:48:00.544Z,101451.67
2022-08-07T04:50:11.494Z,101449.16
2022-08-07T04:52:34.430Z,101450.52
2022-08-07T04:54:55.904Z,101448.71
2022-08-07T04:58:09.995Z,101452.19
2022-08-07T05:00:10.983Z,101453.14
2022-08-07T05:02:31.749Z,101457.13
2022-08-07T05:04:50.579Z,101460.75
2022-08-07T05:07:19.759Z,101459.15
2022-08-07T05:09:45.538Z,101455.38
2022-08-07T05:12:04.717Z,101458.05
2022-08-07T05:14:53.901Z,101458.18
2022-08-07T05:17:01.121Z,101459.84
2022-08-07T05:19:25.679Z,101458.02
2022-08-07T05:22:00.247Z,101457.73
2022-08-07T05:24:20.499Z,101453.11
2022-08-07T05:26:40.197Z,101453.67
2022-08-07T05:28:56.365Z,101456.84
2022-08-07T05:31:14.521Z,101454.46
2022-08-07T05:33:31.767Z,101457.39
2022-08-07T05:35:50.692Z,101452.11
2022-08-07T05:38:08.716Z,101449.13
2022-08-07T05:40:24.298Z,101449.05
2022-08-07T05:42:42.280Z,101449.48
2022-08-07T05:45:26.024Z,101446.30
2022-08-07T05:48:01.676Z,101446.08
2022-08-07T05:50:24.665Z,101445.80
2022-08-07T05:52:38.244Z,101444.44
2022-08-07T05:54:55.524Z,101441.20
2022-08-07T05:57:11.723Z,101449.23
2022-08-07T05:59:27.439Z,101451.84
2022-08-07T06:01:48.622Z,101453.23
2022-08-07T06:04:03.865Z,101455.39
2022-08-07T06:06:22.853Z,101455.20
2022-08-07T06:08:44.581Z,101453.85
2022-08-07T06:11:00.331Z,101450.98
2022-08-07T06:13:17.321Z,101456.16
2022-08-07T06:15:42.202Z,101450.86
2022-08-07T06:17:59.879Z,101450.65
2022-08-07T06:20:25.669Z,101453.77
2022-08-07T06:23:02.153Z,101454.07
2022-08-07T06:25:26.445Z,101451.48
2022-08-07T06:28:00.031Z,101451.29
2022-08-07T06:30:32.335Z,101454.17
2022-08-07T06:32:52.024Z,101452.88
2022-08-07T06:35:17.637Z,101453.52
2022-08-07T06:37:44.443Z,101460.61
2022-08-07T06:40:17.187Z,101462.63
2022-08-07T06:42:38.474Z,101460.06
2022-08-07T06:45:01.107Z,101462.41
2022-08-07T06:47:15.501Z,101461.98
2022-08-07T06:49:29.414Z,101455.33
2022-08-07T06:51:49.610Z,101456.45
2022-08-07T06:55:28.954Z,101456.92
2022-08-07T06:56:49.360Z,101456.95
2022-08-07T07:00:13.790Z,101458.08
2022-08-07T07:01:48.815Z,101457.40
2022-08-07T07:04:27.929Z,101453.70
2022-08-07T07:06:39.421Z,101458.90
2022-08-07T07:09:30.907Z,101459.58
2022-08-07T07:12:08.849Z,101455.73
2022-08-07T07:14:22.399Z,101454.43
2022-08-07T07:16:50.022Z,101452.89
2022-08-07T07:19:54.458Z,101454.83
2022-08-07T07:22:04.800Z,101451.53
2022-08-07T07:24:19.155Z,101452.95
2022-08-07T07:26:37.804Z,101450.71
2022-08-07T07:29:40.688Z,101452.77
2022-08-07T07:31:44.130Z,101446.61
2022-08-07T07:34:03.099Z,101448.55
2022-08-07T07:36:18.005Z,101449.63
2022-08-07T07:38:32.370Z,101449.16
2022-08-07T07:40:48.651Z,101446.36
2022-08-07T07:43:15.245Z,101440.23
2022-08-07T07:46:36.935Z,101441.77
2022-08-07T07:48:08.770Z,101438.75
2022-08-07T07:50:33.019Z,101440.11
2022-08-07T07:52:52.421Z,101436.85
2022-08-07T07:55:06.773Z,101434.33
2022-08-07T07:57:50.410Z,101433.61
2022-08-07T07:59:58.233Z,101428.64
2022-08-07T08:02:22.660Z,101432.39
2022-08-07T08:04:50.445Z,101438.64
2022-08-07T08:07:07.719Z,101438.20
2022-08-07T08:09:23.246Z,101430.73
2022-08-07T08:11:59.719Z,101430.44
2022-08-07T08:14:10.131Z,101426.94
2022-08-07T08:16:30.115Z,101430.48
2022-08-07T08:18:45.125Z,101429.52
2022-08-07T08:21:05.256Z,101433.77
2022-08-07T08:23:38.726Z,101435.27
2022-08-07T08:26:11.280Z,101432.16
2022-08-07T08:28:38.496Z,101428.67
2022-08-07T08:30:55.586Z,101426.40
2022-08-07T08:33:16.239Z,101429.39
2022-08-07T08:35:39.306Z,101428.05
2022-08-07T08:38:04.658Z,101426.45
2022-08-07T08:40:28.593Z,101425.44
2022-08-07T08:42:46.783Z,101418.44
2022-08-07T08:45:13.801Z,101417.69
2022-08-07T08:47:47.390Z,101419.14
2022-08-07T08:50:18.980Z,101422.73
2022-08-07T08:52:54.965Z,101421.13
2022-08-07T08:55:20.826Z,101418.27
2022-08-07T08:57:55.712Z,101417.05
2022-08-07T09:00:13.173Z,101415.61
2022-08-07T09:02:41.905Z,101413.17
2022-08-07T09:05:01.621Z,101412.81
2022-08-07T09:07:23.218Z,101409.94
2022-08-07T09:09:56.487Z,101410.04
2022-08-07T09:12:30.955Z,101410.83
2022-08-07T09:14:58.619Z,101409.30
2022-08-07T09:17:25.825Z,101408.27
2022-08-07T09:20:01.001Z,101407.60
2022-08-07T09:24:33.474Z,101407.09
2022-08-07T09:25:17.347Z,101407.46
2022-08-07T09:27:59.425Z,101407.89
2022-08-07T09:30:20.727Z,101405.65
2022-08-07T09:32:57.329Z,101406.89
2022-08-07T09:36:00.957Z,101403.84
2022-08-07T09:37:55.405Z,101408.98
2022-08-07T09:40:25.599Z,101409.00
2022-08-07T09:42:50.440Z,101407.83
2022-08-07T09:47:24.493Z,101409.89
2022-08-07T09:48:02.447Z,101409.67
2022-08-07T09:50:26.615Z,101407.54
2022-08-07T09:52:51.759Z,101406.63
2022-08-07T09:55:29.899Z,101405.10
2022-08-07T09:58:14.577Z,101403.73
2022-08-07T10:00:31.944Z,101403.57
2022-08-07T10:04:04.975Z,101399.95
2022-08-07T10:06:56.858Z,101401.66
2022-08-07T10:09:42.755Z,101397.25
2022-08-07T10:12:19.700Z,101404.39
2022-08-07T10:14:58.779Z,101402.23
2022-08-07T10:17:19.367Z,101399.14
2022-08-07T10:19:56.326Z,101398.52
2022-08-07T10:22:33.574Z,101395.98
2022-08-07T10:25:02.700Z,101391.61
2022-08-07T10:27:47.034Z,101393.91
2022-08-07T10:30:16.578Z,101396.11
2022-08-07T10:32:59.789Z,101389.25
2022-08-07T10:35:25.953Z,101387.41
2022-08-07T10:38:09.896Z,101390.09
2022-08-07T10:40:30.107Z,101383.37
2022-08-07T10:42:50.244Z,101384.71
2022-08-07T10:45:13.249Z,101381.54
2022-08-07T10:47:51.551Z,101379.05
2022-08-07T10:50:15.246Z,101379.82
2022-08-07T10:52:37.221Z,101379.23
2022-08-07T10:55:01.502Z,101380.05
2022-08-07T10:57:34.781Z,101381.33
2022-08-07T11:00:08.894Z,101382.44
2022-08-07T11:02:34.300Z,101384.09
2022-08-07T11:05:10.768Z,101383.16
2022-08-07T11:07:59.045Z,101386.66
2022-08-07T11:10:10.093Z,101383.08
2022-08-07T11:12:31.721Z,101382.12
2022-08-07T11:14:59.728Z,101386.02
2022-08-07T11:17:23.293Z,101390.35
2022-08-07T11:19:59.362Z,101387.57
2022-08-07T11:22:36.097Z,101389.96
2022-08-07T11:25:03.311Z,101390.42
2022-08-07T11:28:01.340Z,101389.06
2022-08-07T11:30:18.851Z,101390.64
2022-08-07T11:32:42.482Z,101387.77
2022-08-07T11:35:00.726Z,101388.23
2022-08-07T11:37:38.170Z,101387.61
2022-08-07T11:40:03.910Z,101384.94
2022-08-07T11:42:29.629Z,101387.79
2022-08-07T11:44:57.631Z,101384.65
2022-08-07T11:47:26.161Z,101379.83
2022-08-07T11:50:31.072Z,101382.94
2022-08-07T11:53:06.510Z,101378.52
2022-08-07T11:56:24.956Z,101382.05
2022-08-07T11:58:16.098Z,101376.81
2022-08-07T12:00:38.018Z,101378.66
2022-08-07T12:03:44.833Z,101372.52
2022-08-07T12:06:01.179Z,101370.91
2022-08-07T12:08:40.971Z,101369.83
2022-08-07T12:11:08.482Z,101370.27
2022-08-07T12:13:44.928Z,101376.08
2022-08-07T12:16:09.136Z,101377.95
2022-08-07T12:18:31.308Z,101377.77
2022-08-07T12:20:51.781Z,101376.80
2022-08-07T12:24:06.153Z,101377.94
2022-08-07T12:26:23.574Z,101375.00
2022-08-07T12:28:49.882Z,101375.53
2022-08-07T12:31:17.242Z,101377.27
2022-08-07T12:34:01.471Z,101374.29
2022-08-07T12:36:12.642Z,101378.89
2022-08-07T12:38:36.776Z,101375.71
2022-08-07T12:40:57.089Z,101375.02
2022-08-07T12:44:03.151Z,101377.93
2022-08-07T12:45:56.338Z,101376.77
2022-08-07T12:48:27.904Z,101375.27
2022-08-07T12:50:57.071Z,101381.77
2022-08-07T12:53:19.126Z,101379.42
2022-08-07T12:55:41.351Z,101381.31
2022-08-07T12:58:15.449Z,101387.31
2022-08-07T13:00:49.698Z,101390.96
2022-08-07T13:03:54.775Z,101394.08
2022-08-07T13:06:27.261Z,101395.40
2022-08-07T13:08:59.850Z,101394.13
2022-08-07T13:11:28.861Z,101397.20
2022-08-07T13:13:55.178Z,101397.37
2022-08-07T13:16:19.719Z,101395.15
2022-08-07T13:18:44.593Z,101397.05
2022-08-07T13:21:10.795Z,101394.89
2022-08-07T13:24:00.823Z,101399.59
2022-08-07T13:26:15.918Z,101400.74
2022-08-07T13:28:39.021Z,101402.75
2022-08-07T13:31:01.680Z,101400.80
2022-08-07T13:34:29.916Z,101398.27
2022-08-07T13:36:09.188Z,101402.50
2022-08-07T13:38:38.590Z,101403.79
2022-08-07T13:41:01.121Z,101403.69
2022-08-07T13:43:17.842Z,101405.91
2022-08-07T13:46:11.182Z,101403.55
2022-08-07T13:48:27.714Z,101411.38
2022-08-07T13:51:02.044Z,101408.46
2022-08-07T13:53:23.609Z,101410.64
2022-08-07T13:55:39.079Z,101414.51
2022-08-07T13:58:36.979Z,101421.80
2022-08-07T14:00:56.225Z,101422.92
2022-08-07T14:03:10.906Z,101422.08
2022-08-07T14:05:37.567Z,101426.95
2022-08-07T14:07:59.403Z,101429.66
2022-08-07T14:10:24.754Z,101431.23
2022-08-07T14:12:53.960Z,101434.08
2022-08-07T14:15:12.685Z,101433.46
2022-08-07T14:17:51.624Z,101436.37
2022-08-07T14:20:40.550Z,101439.90
2022-08-07T14:22:39.544Z,101443.66
2022-08-07T14:24:57.974Z,101443.19
2022-08-07T14:28:11.750Z,101444.14
2022-08-07T14:30:05.217Z,101446.96
2022-08-07T14:32:25.093Z,101445.35
2022-08-07T14:34:45.612Z,101451.29
2022-08-07T14:37:02.022Z,101449.77
2022-08-07T14:40:15.804Z,101448.02
2022-08-07T14:42:19.698Z,101451.48
2022-08-07T14:44:30.148Z,101453.73
2022-08-07T14:46:52.014Z,101457.68
2022-08-07T14:49:58.015Z,101458.51
2022-08-07T14:52:03.709Z,101456.02
2022-08-07T14:54:33.063Z,101461.14
2022-08-07T14:56:51.793Z,101457.79
2022-08-07T15:01:51.297Z,101451.00
2022-08-07T15:04:08.818Z,101450.25
2022-08-07T15:06:29.469Z,101455.67
2022-08-07T15:08:52.880Z,101451.40
2022-08-07T15:11:14.947Z,101453.92
2022-08-07T15:13:35.807Z,101452.39
2022-08-07T15:15:54.019Z,101456.35
2022-08-07T15:18:14.332Z,101451.20
2022-08-07T15:20:55.013Z,101457.84
2022-08-07T15:23:20.486Z,101457.19
2022-08-07T15:25:42.839Z,101460.56
2022-08-07T15:28:30.729Z,101462.68
2022-08-07T15:31:04.819Z,101460.13
2022-08-07T15:33:19.672Z,101463.23
2022-08-07T15:38:30.057Z,101462.98
2022-08-07T15:40:48.898Z,101464.12
2022-08-07T15:43:53.214Z,101463.52
2022-08-07T15:49:03.503Z,101459.90
2022-08-07T15:51:18.188Z,101465.42
2022-08-07T15:53:51.955Z,101462.11
2022-08-07T15:56:11.026Z,101463.55
2022-08-07T15:58:32.606Z,101466.61
2022-08-07T16:00:46.370Z,101464.36
2022-08-07T16:03:01.283Z,101465.38
2022-08-07T16:05:23.124Z,101457.91
2022-08-07T16:08:32.160Z,101456.19
2022-08-07T16:10:26.146Z,101456.48
2022-08-07T16:13:01.125Z,101462.94
2022-08-07T16:15:56.398Z,101467.67
2022-08-07T16:18:49.347Z,101465.31
2022-08-07T16:22:03.146Z,101467.15
2022-08-07T16:23:55.061Z,101466.73
2022-08-07T16:26:30.965Z,101462.64
2022-08-07T16:30:07.246Z,101462.02
2022-08-07T16:31:50.114Z,101465.69
2022-08-07T16:34:23.683Z,101460.50
2022-08-07T16:37:02.784Z,101460.89
2022-08-07T16:39:48.653Z,101462.17
2022-08-07T16:42:36.709Z,101460.30
2022-08-07T16:45:15.427Z,101457.02
2022-08-07T16:48:13.644Z,101455.55
2022-08-07T16:51:20.601Z,101454.73
2022-08-07T16:53:55.638Z,101448.81
2022-08-07T16:56:29.578Z,101443.80
2022-08-07T16:59:10.565Z,101445.03
2022-08-07T17:01:41.069Z,101442.25
2022-08-07T17:04:07.737Z,101444.09
2022-08-07T17:06:44.768Z,101437.23
2022-08-07T17:09:09.646Z,101436.81
2022-08-07T17:12:04.757Z,101438.45
2022-08-07T17:14:18.513Z,101438.30
2022-08-07T17:16:43.669Z,101438.09
2022-08-07T17:19:16.480Z,101435.60
2022-08-07T17:21:51.378Z,101435.92
2022-08-07T17:24:23.645Z,101437.78
2022-08-07T17:26:51.348Z,101435.29
2022-08-07T17:30:12.658Z,101438.03
2022-08-07T17:32:02.871Z,101439.61
2022-08-07T17:34:34.700Z,101437.14
2022-08-07T17:37:08.958Z,101439.85
2022-08-07T17:39:57.769Z,101437.49
2022-08-07T17:42:14.039Z,101436.84
2022-08-07T17:44:43.920Z,101434.79
2022-08-07T17:47:08.440Z,101432.14
2022-08-07T17:49:30.066Z,101432.55
2022-08-07T17:52:00.472Z,101437.80
2022-08-07T17:54:40.212Z,101433.48
2022-08-07T17:57:02.896Z,101438.52
2022-08-07T17:59:37.707Z,101437.42
2022-08-07T18:01:56.582Z,101431.83
2022-08-07T18:04:30.894Z,101430.52
2022-08-07T18:07:19.403Z,101428.42
2022-08-07T18:10:04.287Z,101428.02
2022-08-07T18:12:28.688Z,101426.85
2022-08-07T18:14:49.348Z,101425.48
2022-08-07T18:17:10.789Z,101425.34
2022-08-07T18:21:11.507Z,101430.42
2022-08-07T18:22:15.105Z,101431.44
2022-08-07T18:24:35.616Z,101429.04
2022-08-07T18:27:18.026Z,101429.61
2022-08-07T18:30:05.929Z,101430.02
2022-08-07T18:32:38.184Z,101430.97
2022-08-07T18:35:15.811Z,101436.20
2022-08-07T18:38:58.483Z,101432.82
2022-08-07T18:40:42.325Z,101428.60
2022-08-07T18:43:09.175Z,101431.59
2022-08-07T18:45:43.375Z,101423.77
2022-08-07T18:50:04.712Z,101426.29
2022-08-07T18:51:08.293Z,101424.08
2022-08-07T18:53:39.146Z,101422.64
2022-08-07T18:56:06.182Z,101420.42
2022-08-07T18:58:41.354Z,101416.56
2022-08-07T19:01:04.832Z,101418.70
2022-08-07T19:03:36.103Z,101414.36
2022-08-07T19:06:02.349Z,101410.58
2022-08-07T19:08:28.863Z,101414.29
2022-08-07T19:11:35.632Z,101413.63
2022-08-07T19:13:52.005Z,101410.41
2022-08-07T19:16:43.769Z,101410.99
2022-08-07T19:18:53.067Z,101407.41
2022-08-07T19:21:47.509Z,101409.95
2022-08-07T19:23:57.964Z,101405.44
2022-08-07T19:26:22.074Z,101403.46
2022-08-07T19:30:54.691Z,101405.42
2022-08-07T19:31:42.774Z,101410.80
2022-08-07T19:33:58.357Z,101413.07
2022-08-07T19:36:15.021Z,101411.38
2022-08-07T19:38:52.543Z,101407.81
2022-08-07T19:41:07.070Z,101409.45
2022-08-07T19:43:50.171Z,101415.55
2022-08-07T19:46:09.642Z,101414.58
2022-08-07T19:48:28.916Z,101417.59
2022-08-07T19:50:48.715Z,101417.20
2022-08-07T19:54:34.789Z,101416.45
2022-08-07T19:55:57.615Z,101413.19
2022-08-07T19:58:15.266Z,101416.98
2022-08-07T20:00:34.519Z,101422.48
2022-08-07T20:02:52.275Z,101420.55
2022-08-07T20:05:11.196Z,101420.76
2022-08-07T20:07:45.904Z,101417.19
2022-08-07T20:10:36.282Z,101409.23
2022-08-07T20:12:39.294Z,101410.79
2022-08-07T20:14:58.499Z,101408.98
2022-08-07T20:17:14.319Z,101404.02
2022-08-07T20:19:49.440Z,101399.05
2022-08-07T20:22:05.900Z,101399.79
2022-08-07T20:24:28.461Z,101397.05
2022-08-07T20:26:49.964Z,101396.38
2022-08-07T20:29:10.649Z,101396.11
2022-08-07T20:31:32.632Z,101388.94
2022-08-07T20:33:50.990Z,101390.23
2022-08-07T20:36:11.783Z,101391.27
2022-08-07T20:38:32.128Z,101386.35
2022-08-07T20:40:51.435Z,101385.30
2022-08-07T20:43:14.715Z,101380.75
2022-08-07T20:46:28.619Z,101379.39
2022-08-07T20:48:09.780Z,101377.98
2022-08-07T20:50:43.099Z,101377.45
2022-08-07T20:52:56.170Z,101383.74
2022-08-07T20:55:10.564Z,101382.26
2022-08-07T20:57:28.166Z,101380.39
2022-08-07T21:00:06.702Z,101383.73
2022-08-07T21:02:34.207Z,101383.39
2022-08-07T21:04:48.242Z,101378.04
2022-08-07T21:07:14.545Z,101379.92
2022-08-07T21:09:53.143Z,101386.66
2022-08-07T21:12:15.133Z,101381.32
2022-08-07T21:14:48.395Z,101384.10
2022-08-07T21:18:03.164Z,101389.26
2022-08-07T21:20:00.788Z,101384.44
2022-08-07T21:22:19.256Z,101390.31
2022-08-07T21:24:38.606Z,101395.66
2022-08-07T21:26:59.626Z,101393.10
2022-08-07T21:29:21.283Z,101397.67
2022-08-07T21:32:10.823Z,101397.59
2022-08-07T21:34:32.018Z,101397.95
2022-08-07T21:36:53.945Z,101398.84
2022-08-07T21:39:47.373Z,101399.60
2022-08-07T21:42:01.460Z,101403.77
2022-08-07T21:44:28.226Z,101404.86
2022-08-07T21:46:50.845Z,101399.72
2022-08-07T21:49:15.117Z,101399.66
2022-08-07T21:51:51.062Z,101395.61
2022-08-07T21:54:18.832Z,101400.54
2022-08-07T21:56:47.089Z,101401.60
2022-08-07T21:59:07.677Z,101401.05
2022-08-07T22:02:11.266Z,101396.87
2022-08-07T22:04:11.046Z,101391.39
2022-08-07T22:06:31.226Z,101398.07
2022-08-07T22:08:53.456Z,101392.49
2022-08-07T22:11:09.526Z,101394.16
2022-08-07T22:13:52.165Z,101390.35
2022-08-07T22:16:42.993Z,101387.74
2022-08-07T22:18:42.113Z,101387.10
2022-08-07T22:20:58.138Z,101389.95
2022-08-07T22:23:23.185Z,101382.71
2022-08-07T22:25:45.123Z,101381.33
2022-08-07T22:28:29.881Z,101384.14
2022-08-07T22:30:52.992Z,101388.71
2022-08-07T22:33:15.457Z,101389.09
2022-08-07T22:35:39.565Z,101389.48
2022-08-07T22:40:36.554Z,101393.02
2022-08-07T22:42:53.188Z,101394.09
2022-08-07T22:45:10.933Z,101392.57
2022-08-07T22:48:02.193Z,101398.54
2022-08-07T22:50:39.594Z,101394.64
2022-08-07T22:54:05.620Z,101396.92
2022-08-07T22:56:04.014Z,101399.95
2022-08-07T22:59:05.213Z,101398.84
2022-08-07T23:01:49.710Z,101398.64
2022-08-07T23:04:18.981Z,101399.94
2022-08-07T23:06:56.851Z,101402.27
2022-08-07T23:10:05.147Z,101404.29
2022-08-07T23:12:04.118Z,101410.64
2022-08-07T23:14:36.879Z,101413.56
2022-08-07T23:17:15.524Z,101412.98
2022-08-07T23:19:57.871Z,101405.15
2022-08-07T23:22:26.255Z,101401.45
2022-08-07T23:24:51.207Z,101402.77
2022-08-07T23:27:33.512Z,101404.41
2022-08-07T23:30:37.064Z,101403.92
2022-08-07T23:34:35.551Z,101405.14
2022-08-07T23:35:41.239Z,101405.60
2022-08-07T23:38:37.017Z,101399.76
2022-08-07T23:41:06.212Z,101402.31
2022-08-07T23:43:56.688Z,101403.52
2022-08-07T23:46:30.962Z,101408.46
2022-08-07T23:49:15.401Z,101403.91
2022-08-07T23:53:02.036Z,101402.20
2022-08-07T23:54:11.681Z,101397.23
2022-08-07T23:56:41.745Z,101399.82
